Time;durP1;ratioP1;P1;durP2;ratioP2;P2;SDS_P1;SDS_P2;PMS_P1;PMS_P2;Temp;Humidity;BMP_temperature;BMP_pressure;BME280_temperature;BME280_humidity;BME280_pressure;Samples;Min_cycle;Max_cycle;Signal;HPM_P1;HPM_P2
2023/09/13 00:00:09;;;;;;;5.70;2.60;;;23.10;88.40;;;;;;5033442;28;20054;-31
2023/09/13 00:02:36;;;;;;;5.10;2.85;;;22.90;87.50;;;;;;5033447;28;20470;-31
2023/09/13 00:05:03;;;;;;;4.63;2.97;;;22.70;87.60;;;;;;5033180;28;20510;-31
2023/09/13 00:07:30;;;;;;;5.60;3.00;;;;;;;;;;5032354;28;20053;-31
2023/09/13 00:09:57;;;;;;;5.30;2.80;;;22.80;79.20;;;;;;5033213;28;20128;-31
2023/09/13 00:12:24;;;;;;;4.40;3.05;;;22.90;87.40;;;;;;5033181;28;20124;-31
2023/09/13 00:14:51;;;;;;;4.82;2.70;;;;;;;;;;5032737;28;20056;-30
2023/09/13 00:17:21;;;;;;;5.03;3.10;;;23.20;87.50;;;;;;5033242;28;20128;-31
2023/09/13 00:19:48;;;;;;;7.05;2.80;;;22.60;88.20;;;;;;5033426;28;20045;-31
2023/09/13 00:22:15;;;;;;;5.10;2.95;;;;;;;;;;5033074;28;20095;-30
2023/09/13 00:24:42;;;;;;;4.15;2.40;;;23.10;88.20;;;;;;5032780;28;20128;-31
2023/09/13 00:27:09;;;;;;;3.97;2.63;;;23.00;87.50;;;;;;5032622;28;20136;-31
2023/09/13 00:29:36;;;;;;;3.55;2.42;;;;;;;;;;5033124;28;20132;-30
2023/09/13 00:32:02;;;;;;;3.58;2.42;;;22.80;88.00;;;;;;5033059;28;20124;-31
2023/09/13 00:34:31;;;;;;;4.85;2.80;;;22.80;71.80;;;;;;5032694;28;20129;-31
2023/09/13 00:36:58;;;;;;;4.22;2.67;;;;;;;;;;5032212;28;20131;-31
2023/09/13 00:39:25;;;;;;;4.90;2.83;;;22.50;88.00;;;;;;5032811;28;20487;-31
2023/09/13 00:41:51;;;;;;;4.18;2.33;;;22.50;87.00;;;;;;5032703;28;20128;-31
2023/09/13 00:44:18;;;;;;;4.90;2.50;;;22.80;79.50;;;;;;5031988;28;20561;-31
2023/09/13 00:46:45;;;;;;;4.38;2.58;;;22.90;87.30;;;;;;5032474;28;20136;-31
2023/09/13 00:49:11;;;;;;;3.55;2.25;;;22.50;87.10;;;;;;5032525;28;20124;-31
2023/09/13 00:51:39;;;;;;;4.43;2.30;;;21.80;72.50;;;;;;5032388;28;20156;-31
2023/09/13 00:54:07;;;;;;;3.70;2.55;;;;;;;;;;5032137;28;20088;-31
2023/09/13 00:56:33;;;;;;;3.88;2.30;;;23.10;73.40;;;;;;5032441;28;20049;-31
2023/09/13 00:59:00;;;;;;;3.33;2.42;;;;;;;;;;5032714;28;20128;-31
2023/09/13 01:01:27;;;;;;;3.60;2.38;;;22.30;87.30;;;;;;5032331;28;20124;-31
2023/09/13 01:03:55;;;;;;;3.83;2.45;;;;;;;;;;5032271;28;20049;-30
2023/09/13 01:06:21;;;;;;;2.55;2.22;;;22.80;87.20;;;;;;5031722;28;20130;-31
2023/09/13 01:08:49;;;;;;;4.10;2.20;;;24.00;87.90;;;;;;5032437;28;20475;-31
2023/09/13 01:11:16;;;;;;;3.20;2.00;;;23.80;88.10;;;;;;5032201;28;20128;-31
2023/09/13 01:13:43;;;;;;;4.15;2.10;;;;;;;;;;5032461;28;20459;-31
2023/09/13 01:16:18;;;;;;;3.88;2.17;;;22.90;87.60;;;;;;5032000;28;20132;-31
2023/09/13 01:18:58;;;;;;;2.50;1.90;;;22.90;86.00;;;;;;5032340;28;20088;-31
2023/09/13 01:21:42;;;;;;;4.63;2.35;;;23.40;81.70;;;;;;5032092;28;20057;-31
2023/09/13 01:24:19;;;;;;;3.50;2.25;;;22.90;77.90;;;;;;5031978;28;20128;-31
2023/09/13 01:27:01;;;;;;;3.88;2.20;;;22.50;87.10;;;;;;5031951;28;20139;-31
2023/09/13 01:29:29;;;;;;;2.67;2.08;;;22.50;87.10;;;;;;5031709;28;20120;-31
2023/09/13 01:31:56;;;;;;;4.03;2.10;;;23.60;87.70;;;;;;5032289;28;20132;-31
2023/09/13 01:34:22;;;;;;;3.25;2.15;;;23.00;74.70;;;;;;5031676;28;20136;-31
2023/09/13 01:36:49;;;;;;;4.05;2.67;;;;;;;;;;5031596;28;20132;-30
2023/09/13 01:39:16;;;;;;;2.88;2.10;;;22.40;87.00;;;;;;5032264;28;20132;-31
2023/09/13 01:41:45;;;;;;;5.38;2.10;;;23.60;87.60;;;;;;5031726;28;20128;-31
2023/09/13 01:44:12;;;;;;;3.00;1.98;;;23.50;77.20;;;;;;5031341;28;20136;-31
2023/09/13 01:46:42;;;;;;;4.53;1.90;;;23.00;87.20;;;;;;5031804;28;20132;-31
2023/09/13 01:49:09;;;;;;;5.18;2.30;;;;;;;;;;5031808;28;20131;-31
2023/09/13 01:51:36;;;;;;;3.88;2.30;;;;;;;;;;5031885;28;20053;-30
2023/09/13 01:54:03;;;;;;;2.50;1.92;;;22.60;86.90;;;;;;5031441;28;20128;-31
2023/09/13 01:56:29;;;;;;;4.13;2.05;;;22.50;86.80;;;;;;5031397;28;20132;-31
2023/09/13 01:58:56;;;;;;;3.13;1.88;;;22.90;75.10;;;;;;5031578;28;20165;-31
2023/09/13 02:01:23;;;;;;;3.90;1.90;;;23.80;88.00;;;;;;5031850;28;20124;-31
2023/09/13 02:03:51;;;;;;;4.22;2.03;;;23.10;87.30;;;;;;5031553;28;20133;-31
2023/09/13 02:06:17;;;;;;;3.50;1.70;;;22.20;87.20;;;;;;5031439;28;20128;-31
2023/09/13 02:08:44;;;;;;;3.25;1.90;;;;;;;;;;5031473;28;20133;-30
2023/09/13 02:11:11;;;;;;;3.10;1.95;;;22.70;80.50;;;;;;5031582;28;20057;-31
2023/09/13 02:13:38;;;;;;;3.20;1.80;;;;;;;;;;5031532;28;20051;-30
2023/09/13 02:16:07;;;;;;;3.22;1.85;;;23.20;87.90;;;;;;5031588;28;20132;-31
2023/09/13 02:18:34;;;;;;;3.08;1.80;;;22.40;86.80;;;;;;5032268;28;20053;-31
2023/09/13 02:21:03;;;;;;;3.10;1.80;;;23.70;71.80;;;;;;5035538;28;20080;-31
2023/09/13 02:23:29;;;;;;;3.83;1.70;;;22.40;87.10;;;;;;5035059;28;20052;-31
2023/09/13 02:25:56;;;;;;;2.60;1.80;;;23.40;87.40;;;;;;5034756;28;20153;-31
2023/09/13 02:28:23;;;;;;;2.80;1.80;;;;;;;;;;5035308;28;20132;-30
2023/09/13 02:30:50;;;;;;;2.22;1.63;;;22.50;83.80;;;;;;5035355;28;20050;-31
2023/09/13 02:33:16;;;;;;;3.58;1.77;;;21.80;86.70;;;;;;5034893;28;20553;-31
2023/09/13 02:35:43;;;;;;;3.45;1.90;;;;;;;;;;5034785;28;20206;-31
2023/09/13 02:38:11;;;;;;;3.47;1.88;;;22.00;86.70;;;;;;5034264;28;20124;-31
2023/09/13 02:40:38;;;;;;;3.08;1.90;;;22.30;87.30;;;;;;5034799;28;20152;-31
2023/09/13 02:43:05;;;;;;;3.08;1.90;;;22.60;87.90;;;;;;5033846;28;20128;-31
2023/09/13 02:45:32;;;;;;;2.28;1.60;;;22.90;76.40;;;;;;5034478;28;20071;-31
2023/09/13 02:47:58;;;;;;;3.00;1.90;;;21.70;87.30;;;;;;5035010;28;20057;-31
2023/09/13 02:50:25;;;;;;;2.80;1.80;;;23.10;79.90;;;;;;5034932;28;20120;-31
2023/09/13 02:52:52;;;;;;;5.00;1.90;;;22.20;77.50;;;;;;5034125;28;20049;-31
2023/09/13 02:55:20;;;;;;;3.08;1.73;;;23.70;87.50;;;;;;5034371;28;20480;-31
2023/09/13 02:57:47;;;;;;;3.30;1.77;;;22.50;86.90;;;;;;5034640;28;20128;-31
2023/09/13 03:00:14;;;;;;;3.72;1.95;;;22.90;87.20;;;;;;5034706;28;20473;-31
2023/09/13 03:02:41;;;;;;;3.45;1.98;;;22.20;84.90;;;;;;5034487;28;20129;-31
2023/09/13 03:05:08;;;;;;;2.63;1.80;;;;;;;;;;5033882;28;20120;-30
2023/09/13 03:07:35;;;;;;;3.33;1.88;;;21.80;86.60;;;;;;5033690;28;20192;-31
2023/09/13 03:10:02;;;;;;;3.20;1.70;;;;;;;;;;5034211;28;20132;-31
2023/09/13 03:12:30;;;;;;;2.78;1.67;;;23.00;87.50;;;;;;5033873;28;20084;-31
2023/09/13 03:14:57;;;;;;;3.22;1.60;;;22.80;87.10;;;;;;5034030;28;20116;-31
2023/09/13 03:17:24;;;;;;;3.25;2.05;;;22.40;87.00;;;;;;5033828;28;20048;-31
2023/09/13 03:19:51;;;;;;;2.75;1.75;;;;;;;;;;5033849;28;20450;-31
2023/09/13 03:22:17;;;;;;;2.15;1.60;;;22.70;87.40;;;;;;5034099;28;20451;-31
2023/09/13 03:24:45;;;;;;;1.92;1.50;;;;;;;;;;5033247;28;20056;-30
2023/09/13 03:27:11;;;;;;;4.38;1.80;;;22.70;87.30;;;;;;5033723;28;20136;-31
2023/09/13 03:29:39;;;;;;;2.50;1.80;;;21.70;86.60;;;;;;5033602;28;20103;-31
2023/09/13 03:32:07;;;;;;;5.25;1.80;;;22.20;86.80;;;;;;5033626;28;20525;-31
2023/09/13 03:34:35;;;;;;;2.95;1.90;;;;;;;;;;5033501;28;20041;-31
2023/09/13 03:37:02;;;;;;;2.97;1.80;;;23.50;87.40;;;;;;5030182;28;20111;-31
2023/09/13 03:39:29;;;;;;;3.50;2.03;;;;;;;;;;5030970;28;20680;-30
2023/09/13 03:41:56;;;;;;;2.58;1.65;;;22.80;87.00;;;;;;5033371;28;20550;-31
2023/09/13 03:44:23;;;;;;;3.08;1.63;;;;;;;;;;5033284;28;20045;-31
2023/09/13 03:46:51;;;;;;;4.15;1.88;;;22.30;87.60;;;;;;5033360;28;20446;-29
2023/09/13 03:49:18;;;;;;;2.70;1.40;;;21.50;86.30;;;;;;5037597;28;20236;-29
2023/09/13 03:51:45;;;;;;;4.20;1.70;;;;;;;;;;5042015;28;20144;-29
2023/09/13 03:54:12;;;;;;;3.67;1.60;;;;;;;;;;5033592;28;20120;-29
2023/09/13 03:56:39;;;;;;;2.50;1.50;;;23.60;87.10;;;;;;5033127;28;20128;-29
2023/09/13 03:59:06;;;;;;;2.42;1.50;;;21.70;73.90;;;;;;5033740;28;20136;-29
2023/09/13 04:01:32;;;;;;;2.65;1.67;;;22.50;80.70;;;;;;5033178;28;20124;-29
2023/09/13 04:04:00;;;;;;;2.33;1.80;;;22.40;87.20;;;;;;5033293;28;20136;-28
2023/09/13 04:06:27;;;;;;;2.22;1.50;;;;;;;;;;5033306;28;20132;-29
2023/09/13 04:08:54;;;;;;;2.33;1.50;;;;;;;;;;5033252;28;20133;-29
2023/09/13 04:11:21;;;;;;;2.33;1.52;;;22.80;87.10;;;;;;5033032;28;20140;-29
2023/09/13 04:13:48;;;;;;;3.65;2.08;;;;;;;;;;5033045;28;20577;-31
2023/09/13 04:16:15;;;;;;;2.15;1.60;;;22.90;88.00;;;;;;5032700;28;20558;-29
2023/09/13 04:18:42;;;;;;;3.67;1.73;;;;;;;;;;5033359;28;20077;-30
2023/09/13 04:21:10;;;;;;;2.15;1.58;;;22.20;86.80;;;;;;5033106;28;20124;-29
2023/09/13 04:23:37;;;;;;;2.38;1.58;;;22.90;87.50;;;;;;5032986;28;20578;-29
2023/09/13 04:26:04;;;;;;;3.92;1.60;;;22.30;87.20;;;;;;5032687;28;20128;-28
2023/09/13 04:28:32;;;;;;;3.65;1.67;;;23.20;77.40;;;;;;5032874;28;20095;-29
2023/09/13 04:30:59;;;;;;;2.47;1.50;;;;;;;;;;5032493;28;20107;-29
2023/09/13 04:33:48;;;;;;;3.63;1.55;;;22.20;86.80;;;;;;5032636;28;20057;-29
2023/09/13 04:36:16;;;;;;;2.75;1.30;;;22.50;71.00;;;;;;5032166;28;20124;-30
2023/09/13 04:38:43;;;;;;;3.60;1.70;;;;;;;;;;5032488;28;20128;-31
2023/09/13 04:41:13;;;;;;;2.50;1.33;;;21.70;86.50;;;;;;5031743;28;20570;-31
2023/09/13 04:43:40;;;;;;;2.03;1.35;;;;;;;;;;5032992;28;20427;-31
2023/09/13 04:46:07;;;;;;;3.17;1.60;;;23.00;87.10;;;;;;5032530;28;20120;-31
2023/09/13 04:48:34;;;;;;;2.85;1.50;;;22.80;84.10;;;;;;5032434;28;20053;-31
2023/09/13 04:51:00;;;;;;;4.97;2.28;;;22.50;87.00;;;;;;5045996;28;20049;-31
2023/09/13 04:53:28;;;;;;;2.80;1.50;;;22.40;70.70;;;;;;5032375;28;20089;-31
2023/09/13 04:55:56;;;;;;;3.58;1.42;;;;;;;;;;5032055;28;20128;-30
2023/09/13 04:58:23;;;;;;;3.08;1.40;;;22.40;86.80;;;;;;5032367;28;20057;-31
2023/09/13 05:00:49;;;;;;;2.25;1.38;;;21.80;72.90;;;;;;5032304;28;20136;-31
2023/09/13 05:03:16;;;;;;;3.35;1.52;;;;;;;;;;5032216;28;20148;-31
2023/09/13 05:05:44;;;;;;;3.35;1.35;;;;;;;;;;5032033;28;20128;-30
2023/09/13 05:08:10;;;;;;;2.30;1.30;;;21.80;86.30;;;;;;5031564;28;20132;-31
2023/09/13 05:10:39;;;;;;;1.77;1.27;;;23.20;87.20;;;;;;5032172;28;20128;-31
2023/09/13 05:13:06;;;;;;;2.67;1.40;;;21.50;84.70;;;;;;5032204;28;20053;-31
2023/09/13 05:15:33;;;;;;;2.53;1.30;;;21.60;86.20;;;;;;5031622;28;20857;-31
2023/09/13 05:17:59;;;;;;;1.95;1.30;;;21.70;72.10;;;;;;5031970;28;20133;-31
2023/09/13 05:20:27;;;;;;;3.65;1.50;;;22.40;78.50;;;;;;5030983;28;20553;-31
2023/09/13 05:22:53;;;;;;;3.53;1.60;;;21.60;86.20;;;;;;5032103;28;20072;-31
2023/09/13 05:25:20;;;;;;;3.67;1.55;;;;;;;;;;5031725;28;20132;-30
2023/09/13 05:27:48;;;;;;;3.00;1.50;;;23.20;86.90;;;;;;5031364;28;20140;-31
2023/09/13 05:30:15;;;;;;;2.97;1.60;;;22.40;74.50;;;;;;5031893;28;20124;-31
2023/09/13 05:32:42;;;;;;;2.50;1.60;;;;;;;;;;5027720;28;20136;-30
2023/09/13 05:35:10;;;;;;;2.28;1.40;;;;;;;;;;5011798;28;20132;-31
2023/09/13 05:37:37;;;;;;;2.58;1.50;;;;;;;;;;5025685;28;20118;-31
2023/09/13 05:40:06;;;;;;;1.60;1.30;;;23.10;87.60;;;;;;5031571;28;20565;-31
2023/09/13 05:42:34;;;;;;;2.65;1.30;;;22.30;86.70;;;;;;5028778;28;20054;-31
2023/09/13 05:45:02;;;;;;;2.70;1.60;;;22.30;70.30;;;;;;5015956;28;20073;-31
2023/09/13 05:47:29;;;;;;;3.40;1.50;;;22.30;70.30;;;;;;5020925;28;20045;-31
2023/09/13 05:49:56;;;;;;;5.80;1.60;;;;;;;;;;5040626;28;20128;-31
2023/09/13 05:52:23;;;;;;;3.13;1.30;;;;;;;;;;5051248;28;20136;-31
2023/09/13 05:54:50;;;;;;;4.25;1.50;;;23.30;87.00;;;;;;5054117;28;20573;-31
2023/09/13 05:57:16;;;;;;;2.72;1.70;;;22.50;87.30;;;;;;5048104;28;20090;-31
2023/09/13 05:59:43;;;;;;;3.40;1.40;;;21.90;74.60;;;;;;5035820;28;20148;-31
2023/09/13 06:02:11;;;;;;;3.15;1.58;;;22.90;87.40;;;;;;5035538;28;20128;-31
2023/09/13 06:04:38;;;;;;;1.92;1.20;;;22.00;86.10;;;;;;5035475;28;20475;-31
2023/09/13 06:07:05;;;;;;;3.88;1.40;;;22.50;87.30;;;;;;5035334;28;20132;-31
2023/09/13 06:09:31;;;;;;;2.83;1.45;;;21.90;75.40;;;;;;5031956;28;20124;-31
2023/09/13 06:12:01;;;;;;;2.50;1.30;;;22.20;86.10;;;;;;5034569;28;20124;-31
2023/09/13 06:14:28;;;;;;;2.15;1.45;;;22.40;83.00;;;;;;5034876;28;20053;-31
2023/09/13 06:16:54;;;;;;;2.50;1.50;;;22.10;86.40;;;;;;5034774;28;20128;-31
2023/09/13 06:19:23;;;;;;;3.90;1.60;;;22.60;86.30;;;;;;5035313;28;20136;-31
2023/09/13 06:21:49;;;;;;;1.95;1.27;;;22.10;78.70;;;;;;5035356;28;20419;-28
2023/09/13 06:24:16;;;;;;;2.25;1.30;;;21.80;72.10;;;;;;5035285;28;20140;-29
2023/09/13 06:26:43;;;;;;;3.88;1.35;;;21.90;86.30;;;;;;5034748;28;20577;-28
2023/09/13 06:29:10;;;;;;;3.30;1.50;;;22.30;86.10;;;;;;5035402;28;20053;-29
2023/09/13 06:31:37;;;;;;;3.53;1.50;;;;;;;;;;5035058;28;20395;-29
2023/09/13 06:34:04;;;;;;;1.50;1.23;;;22.30;86.50;;;;;;5035423;28;20148;-28
2023/09/13 06:36:32;;;;;;;2.90;1.50;;;21.90;72.20;;;;;;5033939;28;20394;-29
2023/09/13 06:38:59;;;;;;;2.72;1.65;;;;;;;;;;5035334;28;20141;-29
2023/09/13 06:41:26;;;;;;;3.50;1.30;;;22.40;87.10;;;;;;5034963;28;20132;-29
2023/09/13 06:43:53;;;;;;;2.60;1.27;;;;;;;;;;5034434;28;20124;-29
2023/09/13 06:46:19;;;;;;;1.85;1.20;;;22.40;76.20;;;;;;5033801;28;20124;-29
2023/09/13 06:48:46;;;;;;;3.00;1.45;;;22.60;86.50;;;;;;5033073;28;20577;-28
2023/09/13 06:51:13;;;;;;;2.90;1.33;;;23.20;80.60;;;;;;5035519;28;20128;-29
2023/09/13 06:53:41;;;;;;;4.53;1.50;;;21.50;86.70;;;;;;5034167;28;20574;-29
2023/09/13 06:56:08;;;;;;;3.78;1.30;;;22.30;86.70;;;;;;5031111;28;20120;-29
2023/09/13 06:58:35;;;;;;;3.38;1.40;;;;;;;;;;5032911;28;20108;-29
2023/09/13 07:01:02;;;;;;;4.50;1.30;;;22.20;86.30;;;;;;5033862;28;20041;-29
2023/09/13 07:03:28;;;;;;;3.55;1.70;;;22.60;87.40;;;;;;5034248;28;20435;-29
2023/09/13 07:05:55;;;;;;;4.03;1.80;;;22.00;76.40;;;;;;5033072;28;20489;-29
2023/09/13 07:08:22;;;;;;;2.67;1.50;;;22.20;81.20;;;;;;5032906;28;20132;-29
2023/09/13 07:10:50;;;;;;;2.28;1.35;;;22.30;86.40;;;;;;5033040;28;20057;-29
2023/09/13 07:13:17;;;;;;;3.58;1.38;;;22.10;86.20;;;;;;5033733;28;20123;-29
2023/09/13 07:15:44;;;;;;;2.10;1.35;;;;;;;;;;5033793;28;20120;-29
2023/09/13 07:18:10;;;;;;;1.77;1.20;;;22.10;87.10;;;;;;5032777;28;20125;-29
2023/09/13 07:20:37;;;;;;;3.15;1.30;;;22.80;86.60;;;;;;5032777;28;20148;-29
2023/09/13 07:23:04;;;;;;;5.55;1.52;;;22.20;79.00;;;;;;5033527;28;20132;-29
2023/09/13 07:25:31;;;;;;;2.10;1.40;;;;;;;;;;5033434;28;20120;-29
2023/09/13 07:28:00;;;;;;;2.72;1.30;;;21.80;71.90;;;;;;5031831;28;20133;-29
2023/09/13 07:30:27;;;;;;;2.60;1.45;;;22.30;86.30;;;;;;5028382;28;20383;-29
2023/09/13 07:32:54;;;;;;;2.00;1.20;;;21.60;75.50;;;;;;5033737;28;20051;-29
2023/09/13 07:35:22;;;;;;;2.00;1.27;;;23.10;86.70;;;;;;5032935;28;20506;-29
2023/09/13 07:37:49;;;;;;;2.72;1.40;;;;;;;;;;5033361;28;20045;-29
2023/09/13 07:40:15;;;;;;;3.05;1.40;;;22.30;86.80;;;;;;5033901;28;20140;-29
2023/09/13 07:42:42;;;;;;;4.30;1.52;;;;;;;;;;5033230;28;20232;-29
2023/09/13 07:45:11;;;;;;;3.95;1.40;;;21.10;86.10;;;;;;5032393;28;20132;-29
2023/09/13 07:47:37;;;;;;;1.98;1.30;;;21.70;86.50;;;;;;5032957;28;20128;-27
2023/09/13 07:50:05;;;;;;;2.22;1.20;;;;;;;;;;5033688;28;20125;-30
2023/09/13 07:52:31;;;;;;;3.10;1.50;;;21.50;85.80;;;;;;5032952;28;20477;-31
2023/09/13 07:54:58;;;;;;;2.63;1.50;;;21.50;86.70;;;;;;5033301;28;20124;-31
2023/09/13 07:57:25;;;;;;;3.10;1.40;;;21.50;75.50;;;;;;5033290;28;20461;-31
2023/09/13 07:59:51;;;;;;;3.95;1.40;;;21.80;85.80;;;;;;5032971;28;20136;-31
2023/09/13 08:02:19;;;;;;;2.30;1.65;;;21.70;86.70;;;;;;5031062;28;20069;-31
2023/09/13 08:04:49;;;;;;;2.90;1.50;;;21.80;85.90;;;;;;5033143;28;20140;-31
2023/09/13 08:07:16;;;;;;;3.30;1.40;;;22.20;86.60;;;;;;5032266;28;20422;-31
2023/09/13 08:09:43;;;;;;;3.55;1.63;;;;;;;;;;5032689;28;20128;-31
2023/09/13 08:12:10;;;;;;;2.88;1.50;;;21.20;86.30;;;;;;5027913;28;20046;-31
2023/09/13 08:14:37;;;;;;;2.95;1.80;;;22.20;86.00;;;;;;5019540;28;20092;-31
2023/09/13 08:17:03;;;;;;;4.25;1.45;;;22.40;75.70;;;;;;5019820;28;20128;-30
2023/09/13 08:19:31;;;;;;;3.47;1.55;;;21.00;85.50;;;;;;5030583;28;20571;-31
2023/09/13 08:21:58;;;;;;;4.30;1.88;;;21.70;77.70;;;;;;5032406;28;20084;-31
2023/09/13 08:24:25;;;;;;;2.90;1.45;;;21.80;86.70;;;;;;5032371;28;20489;-31
2023/09/13 08:26:52;;;;;;;3.22;1.60;;;;;;;;;;5029501;28;20129;-30
2023/09/13 08:29:18;;;;;;;3.03;1.50;;;22.30;86.10;;;;;;5032514;28;20132;-31
2023/09/13 08:31:45;;;;;;;2.53;1.50;;;21.90;78.20;;;;;;5032128;28;20510;-30
2023/09/13 08:34:12;;;;;;;3.72;1.95;;;22.10;78.80;;;;;;5029039;28;20124;-31
2023/09/13 08:36:40;;;;;;;4.60;1.73;;;22.50;86.80;;;;;;5028000;28;20481;-31
2023/09/13 08:39:07;;;;;;;2.60;1.48;;;;;;;;;;5032466;28;20153;-31
2023/09/13 08:41:34;;;;;;;3.08;1.50;;;;;;;;;;5032228;28;20129;-29
2023/09/13 08:44:02;;;;;;;2.35;1.60;;;;;;;;;;5032648;28;20053;-29
2023/09/13 08:46:28;;;;;;;2.47;1.65;;;22.10;78.00;;;;;;5028587;28;20128;-30
2023/09/13 08:48:55;;;;;;;4.03;1.80;;;;;;;;;;5016521;28;20136;-31
2023/09/13 08:51:22;;;;;;;2.53;1.58;;;;;;;;;;5048974;28;20132;-30
2023/09/13 08:53:52;;;;;;;3.90;1.67;;;22.10;69.60;;;;;;5029450;28;20140;-31
2023/09/13 08:56:19;;;;;;;4.22;1.70;;;22.10;69.60;;;;;;5032296;28;20041;-30
2023/09/13 08:58:46;;;;;;;3.15;1.88;;;;;;;;;;5031013;28;20133;-29
2023/09/13 09:01:13;;;;;;;4.60;1.70;;;22.00;80.50;;;;;;5032346;28;20154;-29
2023/09/13 09:03:40;;;;;;;3.13;1.63;;;21.80;86.20;;;;;;5030821;28;20057;-28
2023/09/13 09:06:07;;;;;;;4.53;2.00;;;;;;;;;;5030582;28;20046;-30
2023/09/13 09:08:36;;;;;;;3.55;1.58;;;21.80;80.50;;;;;;5031143;28;20129;-29
2023/09/13 09:11:05;;;;;;;4.65;1.70;;;22.10;69.60;;;;;;5031129;28;20056;-29
2023/09/13 09:13:32;;;;;;;3.40;1.80;;;;;;;;;;5030862;28;20133;-29
2023/09/13 09:15:59;;;;;;;3.50;1.70;;;22.20;86.10;;;;;;5030625;28;20041;-29
2023/09/13 09:18:26;;;;;;;2.95;1.60;;;;;;;;;;5031185;28;20129;-29
2023/09/13 09:20:53;;;;;;;5.25;2.28;;;21.10;83.80;;;;;;5029769;28;20124;-29
2023/09/13 09:23:19;;;;;;;4.43;1.70;;;21.10;78.50;;;;;;5018514;28;20131;-29
2023/09/13 09:25:46;;;;;;;5.25;1.73;;;21.60;82.50;;;;;;5025869;28;20553;-29
2023/09/13 09:28:14;;;;;;;2.30;1.70;;;22.40;86.00;;;;;;5031067;28;20128;-30
2023/09/13 09:30:41;;;;;;;2.58;1.60;;;22.00;86.20;;;;;;5030779;28;20084;-31
2023/09/13 09:33:08;;;;;;;3.08;2.13;;;;;;;;;;5012549;28;20050;-30
2023/09/13 09:35:36;;;;;;;5.93;1.90;;;23.10;86.90;;;;;;5027586;28;20124;-31
2023/09/13 09:38:03;;;;;;;3.80;1.70;;;22.40;76.10;;;;;;5027488;28;20132;-31
2023/09/13 09:40:37;;;;;;;3.65;1.83;;;21.60;72.50;;;;;;5030574;28;20053;-29
2023/09/13 09:43:04;;;;;;;3.17;1.63;;;22.20;84.20;;;;;;5027158;28;20073;-29
2023/09/13 09:45:32;;;;;;;4.90;1.63;;;21.80;77.00;;;;;;5030062;28;20132;-29
2023/09/13 09:47:59;;;;;;;3.10;1.80;;;;;;;;;;5029777;28;20128;-29
2023/09/13 09:50:26;;;;;;;3.70;1.90;;;;;;;;;;5033258;28;20653;-29
2023/09/13 09:52:53;;;;;;;2.80;1.50;;;21.50;85.30;;;;;;5030150;28;20136;-29
2023/09/13 09:55:21;;;;;;;4.45;1.60;;;;;;;;;;5030689;28;20602;-30
2023/09/13 09:57:48;;;;;;;4.10;1.77;;;;;;;;;;5030390;28;20116;-30
2023/09/13 10:00:15;;;;;;;4.30;1.60;;;21.80;75.80;;;;;;5014388;28;20052;-31
2023/09/13 10:02:45;;;;;;;3.03;1.70;;;22.20;69.50;;;;;;5030237;28;20208;-30
2023/09/13 10:05:16;;;;;;;3.53;1.70;;;22.50;85.80;;;;;;5030654;28;20124;-31
2023/09/13 10:07:51;;;;;;;3.13;1.80;;;22.20;69.40;;;;;;5031984;28;20124;-30
2023/09/13 10:10:28;;;;;;;3.80;1.83;;;24.80;70.80;;;;;;5037554;28;20081;-31
2023/09/13 10:12:55;;;;;;;4.68;1.70;;;;;;;;;;5011054;28;20401;-31
2023/09/13 10:15:22;;;;;;;3.53;1.48;;;22.60;85.80;;;;;;5010987;28;20049;-31
2023/09/13 10:17:50;;;;;;;4.28;1.90;;;22.10;85.90;;;;;;5010765;28;20603;-29
2023/09/13 10:20:17;;;;;;;3.13;1.83;;;21.70;85.70;;;;;;5013891;28;20129;-29
2023/09/13 10:22:45;;;;;;;4.68;1.75;;;;;;;;;;5030102;28;20049;-29
2023/09/13 10:25:12;;;;;;;3.65;1.73;;;22.20;69.50;;;;;;5030571;28;20129;-29
2023/09/13 10:27:39;;;;;;;4.45;1.80;;;;;;;;;;5030251;28;20049;-29
2023/09/13 10:30:07;;;;;;;4.28;1.67;;;22.50;86.60;;;;;;5030721;28;20124;-29
2023/09/13 10:32:37;;;;;;;6.70;1.75;;;22.10;81.00;;;;;;5030441;28;20107;-29
2023/09/13 10:35:06;;;;;;;4.18;1.65;;;22.10;74.00;;;;;;5030276;28;20542;-29
2023/09/13 10:37:36;;;;;;;4.32;1.75;;;22.50;86.10;;;;;;5029869;28;20045;-29
2023/09/13 10:40:10;;;;;;;4.75;1.73;;;21.70;69.40;;;;;;5030834;28;20049;-28
2023/09/13 10:42:37;;;;;;;7.38;1.77;;;22.90;69.70;;;;;;5032419;28;20496;-29
2023/09/13 10:45:05;;;;;;;6.03;2.05;;;22.60;81.50;;;;;;5033494;28;20593;-31
2023/09/13 10:47:32;;;;;;;3.63;1.50;;;;;;;;;;5033182;28;20128;-29
2023/09/13 10:49:59;;;;;;;3.80;1.83;;;21.00;84.80;;;;;;5033796;28;20128;-31
2023/09/13 10:52:27;;;;;;;2.58;1.73;;;22.20;69.40;;;;;;5033586;28;20133;-31
2023/09/13 10:54:54;;;;;;;5.35;1.67;;;;;;;;;;5034026;28;20060;-31
2023/09/13 10:57:20;;;;;;;2.55;1.50;;;22.10;80.90;;;;;;5033873;28;20129;-29
2023/09/13 10:59:47;;;;;;;5.80;1.73;;;22.00;82.20;;;;;;5033806;28;20191;-29
2023/09/13 11:02:14;;;;;;;2.45;1.55;;;;;;;;;;5033629;28;20133;-29
2023/09/13 11:04:41;;;;;;;3.53;1.70;;;22.50;86.40;;;;;;5032729;28;20140;-29
2023/09/13 11:07:08;;;;;;;5.68;1.70;;;22.40;86.00;;;;;;5033372;28;20479;-29
2023/09/13 11:09:36;;;;;;;2.88;1.70;;;22.30;69.40;;;;;;5033514;28;20133;-31
2023/09/13 11:12:03;;;;;;;4.22;1.80;;;;;;;;;;5033907;28;20128;-30
2023/09/13 11:14:31;;;;;;;2.63;1.48;;;22.00;85.30;;;;;;5033439;28;20128;-31
2023/09/13 11:17:10;;;;;;;2.90;1.58;;;21.90;85.80;;;;;;5033356;28;20103;-31
2023/09/13 11:19:37;;;;;;;2.97;1.50;;;;;;;;;;5033011;28;20140;-31
2023/09/13 11:22:05;;;;;;;4.85;1.70;;;22.50;85.90;;;;;;5033530;28;20133;-31
2023/09/13 11:24:40;;;;;;;3.22;1.65;;;22.40;81.30;;;;;;5033155;28;20438;-31
2023/09/13 11:27:14;;;;;;;3.97;1.83;;;22.40;71.50;;;;;;5033120;28;20050;-31
2023/09/13 11:29:42;;;;;;;3.30;1.67;;;22.40;69.30;;;;;;5013539;28;20526;-30
2023/09/13 11:32:10;;;;;;;3.30;1.70;;;;;;;;;;5013161;28;20048;-31
2023/09/13 11:34:37;;;;;;;4.28;1.70;;;22.30;85.20;;;;;;5013680;28;20057;-31
2023/09/13 11:37:05;;;;;;;3.50;1.70;;;21.30;82.60;;;;;;5022834;28;20041;-31
2023/09/13 11:39:32;;;;;;;2.67;1.60;;;22.80;85.80;;;;;;5032918;28;20128;-30
2023/09/13 11:42:00;;;;;;;5.03;1.92;;;22.20;68.90;;;;;;5033162;28;20128;-31
2023/09/13 11:44:27;;;;;;;3.25;1.70;;;21.90;85.00;;;;;;5032735;28;20733;-31
2023/09/13 11:46:54;;;;;;;4.13;1.77;;;22.50;71.20;;;;;;5032532;28;20052;-31
2023/09/13 11:49:22;;;;;;;2.22;1.40;;;21.80;78.50;;;;;;5035605;28;20125;-31
2023/09/13 11:51:52;;;;;;;3.50;1.60;;;22.10;85.00;;;;;;5032911;28;20103;-31
2023/09/13 11:54:19;;;;;;;3.63;1.60;;;22.10;85.70;;;;;;5032689;28;20486;-31
2023/09/13 11:56:46;;;;;;;3.40;1.65;;;;;;;;;;5032551;28;20071;-30
2023/09/13 11:59:14;;;;;;;2.90;1.88;;;22.20;85.20;;;;;;5032709;28;20129;-30
2023/09/13 12:01:45;;;;;;;2.70;1.50;;;22.30;69.20;;;;;;5032399;28;20575;-31
2023/09/13 12:04:12;;;;;;;5.15;1.70;;;;;;;;;;5032268;28;20045;-31
2023/09/13 12:06:42;;;;;;;3.42;1.50;;;22.00;81.40;;;;;;5031951;28;20081;-30
2023/09/13 12:09:13;;;;;;;3.90;1.58;;;23.50;85.30;;;;;;5032231;28;20049;-31
2023/09/13 12:11:40;;;;;;;4.05;1.80;;;21.60;72.20;;;;;;5032790;28;20133;-31
2023/09/13 12:14:08;;;;;;;3.58;1.77;;;21.80;68.90;;;;;;5032562;28;20060;-30
2023/09/13 12:16:37;;;;;;;4.47;1.60;;;21.40;84.80;;;;;;5031819;28;20088;-31
2023/09/13 12:19:05;;;;;;;2.65;1.50;;;;;;;;;;5032135;28;20055;-30
2023/09/13 12:21:32;;;;;;;2.58;1.48;;;22.40;81.30;;;;;;5030831;28;20507;-31
2023/09/13 12:23:59;;;;;;;3.33;1.52;;;;;;;;;;5032289;28;20049;-31
2023/09/13 12:26:25;;;;;;;3.42;1.77;;;22.90;85.60;;;;;;5031736;28;20137;-31
2023/09/13 12:28:53;;;;;;;2.20;1.42;;;23.20;79.40;;;;;;5032218;28;20128;-31
2023/09/13 12:31:20;;;;;;;3.38;1.42;;;21.90;73.70;;;;;;5031691;28;20538;-31
2023/09/13 12:33:49;;;;;;;3.47;1.40;;;22.20;76.30;;;;;;5032063;28;20132;-31
2023/09/13 12:36:16;;;;;;;2.40;1.30;;;;;;;;;;5030759;28;20124;-31
2023/09/13 12:38:47;;;;;;;3.60;1.60;;;22.60;68.60;;;;;;5032010;28;20129;-31
2023/09/13 12:41:14;;;;;;;4.30;1.50;;;22.70;72.10;;;;;;5031435;28;20045;-31
2023/09/13 12:43:42;;;;;;;2.03;1.40;;;22.70;68.50;;;;;;5031523;28;20124;-31
2023/09/13 12:46:10;;;;;;;2.80;1.30;;;23.40;85.60;;;;;;5030997;28;20048;-31
2023/09/13 12:48:37;;;;;;;3.50;1.40;;;22.60;84.40;;;;;;5031318;28;20449;-31
2023/09/13 12:51:07;;;;;;;4.00;1.70;;;22.70;68.50;;;;;;5033067;28;20136;-30
2023/09/13 12:53:34;;;;;;;3.75;1.50;;;;;;;;;;5031103;28;20136;-31
2023/09/13 12:56:00;;;;;;;2.35;1.40;;;23.70;84.80;;;;;;5030923;28;20545;-28
2023/09/13 12:58:27;;;;;;;2.83;1.35;;;22.50;77.60;;;;;;5031073;28;20121;-29
2023/09/13 13:00:55;;;;;;;4.35;1.65;;;22.70;68.30;;;;;;5030861;28;20510;-30
2023/09/13 13:03:24;;;;;;;3.30;1.42;;;22.40;84.90;;;;;;5030842;28;20075;-29
2023/09/13 13:05:51;;;;;;;2.00;1.40;;;23.20;76.20;;;;;;5030947;28;20056;-29
2023/09/13 13:08:19;;;;;;;2.75;1.60;;;22.40;73.50;;;;;;5030848;28;20044;-29
2023/09/13 13:10:56;;;;;;;3.05;1.92;;;22.60;72.20;;;;;;5030896;28;20510;-29
2023/09/13 13:13:29;;;;;;;2.92;1.60;;;22.60;84.30;;;;;;5031058;28;20128;-29